createdAt,value
2023-03-23T15:57:56.639Z,12.05
2023-03-23T16:00:28.184Z,12.03
2023-03-23T16:03:03.011Z,11.96
2023-03-23T16:05:31.985Z,11.98
2023-03-23T16:08:00.460Z,11.92
2023-03-23T16:10:29.105Z,11.96
2023-03-23T16:12:57.302Z,12.03
2023-03-23T16:15:25.715Z,12.04
2023-03-23T16:17:53.844Z,12.03
2023-03-23T16:20:23.753Z,12.01
2023-03-23T16:22:52.867Z,11.98
2023-03-23T16:25:21.303Z,11.95
2023-03-23T16:27:52.423Z,11.93
2023-03-23T16:30:27.690Z,11.92
2023-03-23T16:32:57.603Z,11.89
2023-03-23T16:35:26.365Z,11.79
2023-03-23T16:38:07.307Z,11.78
2023-03-23T16:40:37.780Z,11.84
2023-03-23T16:43:08.940Z,11.83
2023-03-23T16:45:43.221Z,11.82
2023-03-23T16:48:14.048Z,11.82
2023-03-23T16:50:44.106Z,11.81
2023-03-23T16:53:12.666Z,11.81
2023-03-23T16:55:41.126Z,11.82
2023-03-23T16:58:17.152Z,11.82
2023-03-23T17:00:49.500Z,11.83
2023-03-23T17:03:21.980Z,11.83
2023-03-23T17:05:51.894Z,11.80
2023-03-23T17:08:21.274Z,11.74
2023-03-23T17:10:49.854Z,11.82
2023-03-23T17:13:18.072Z,11.80
2023-03-23T17:15:47.529Z,11.80
2023-03-23T17:18:16.668Z,11.80
2023-03-23T17:20:45.312Z,11.80
2023-03-23T17:23:13.524Z,11.79
2023-03-23T17:25:42.236Z,11.81
2023-03-23T17:28:10.733Z,11.82
2023-03-23T17:30:44.004Z,11.82
2023-03-23T17:33:12.968Z,11.83
2023-03-23T17:35:42.250Z,11.84
2023-03-23T17:38:11.149Z,11.84
2023-03-23T17:40:39.311Z,11.85
2023-03-23T17:43:07.515Z,11.86
2023-03-23T17:45:36.621Z,11.86
2023-03-23T17:48:07.912Z,11.87
2023-03-23T17:50:36.807Z,11.86
2023-03-23T17:53:05.049Z,11.86
2023-03-23T17:55:33.346Z,11.85
2023-03-23T17:58:01.456Z,11.83
2023-03-23T18:00:29.639Z,11.83
2023-03-23T18:02:58.172Z,11.62
2023-03-23T18:05:27.981Z,11.25
2023-03-23T18:07:56.103Z,10.84
2023-03-23T18:10:24.225Z,10.70
2023-03-23T18:12:52.427Z,10.44
2023-03-23T18:15:20.600Z,10.19
2023-03-23T18:17:50.734Z,10.05
2023-03-23T18:20:18.919Z,9.98
2023-03-23T18:22:47.974Z,9.97
2023-03-23T18:25:16.229Z,9.92
2023-03-23T18:27:44.543Z,9.83
2023-03-23T18:30:12.883Z,9.77
2023-03-23T18:32:41.776Z,9.73
2023-03-23T18:35:11.321Z,9.66
2023-03-23T18:37:39.885Z,9.64
2023-03-23T18:40:12.140Z,9.63
2023-03-23T18:42:42.286Z,9.56
2023-03-23T18:45:11.760Z,9.48
2023-03-23T18:47:39.982Z,9.42
2023-03-23T18:50:10.168Z,9.42
2023-03-23T18:52:38.724Z,9.44
2023-03-23T18:55:07.174Z,9.45
2023-03-23T18:57:35.913Z,9.45
2023-03-23T19:00:04.916Z,9.46
2023-03-23T19:02:33.180Z,9.42
2023-03-23T19:05:01.803Z,9.37
2023-03-23T19:07:31.471Z,9.37
2023-03-23T19:10:00.201Z,9.40
2023-03-23T19:12:28.273Z,9.43
2023-03-23T19:14:56.352Z,9.44
2023-03-23T19:17:25.333Z,9.45
2023-03-23T19:19:53.572Z,9.47
2023-03-23T19:22:21.690Z,9.49
2023-03-23T19:24:49.845Z,9.49
2023-03-23T19:27:19.025Z,9.49
2023-03-23T19:29:47.521Z,9.49
2023-03-23T19:32:16.048Z,9.48
2023-03-23T19:34:44.280Z,9.46
2023-03-23T19:37:12.532Z,9.47
2023-03-23T19:39:42.559Z,9.47
2023-03-23T19:42:11.247Z,9.52
2023-03-23T19:44:39.445Z,9.55
2023-03-23T19:47:07.670Z,9.58
2023-03-23T19:49:36.467Z,9.62
2023-03-23T19:52:11.936Z,9.62
2023-03-23T19:54:42.243Z,9.78
2023-03-23T19:57:10.676Z,9.88
2023-03-23T19:59:39.326Z,9.98
2023-03-23T20:02:08.323Z,10.04
2023-03-23T20:04:36.930Z,10.14
2023-03-23T20:07:07.744Z,10.20
2023-03-23T20:09:38.118Z,10.24
2023-03-23T20:12:07.564Z,10.26
2023-03-23T20:14:37.504Z,10.27
2023-03-23T20:17:09.885Z,10.26
2023-03-23T20:19:38.783Z,10.23
2023-03-23T20:22:07.341Z,10.21
2023-03-23T20:24:35.805Z,10.16
2023-03-23T20:27:04.250Z,10.15
2023-03-23T20:29:33.578Z,10.10
2023-03-23T20:32:02.257Z,10.08
2023-03-23T20:34:31.370Z,10.05
2023-03-23T20:37:01.937Z,10.02
2023-03-23T20:39:32.756Z,9.91
2023-03-23T20:42:03.492Z,9.99
2023-03-23T20:44:34.978Z,9.97
2023-03-23T20:47:04.687Z,9.95
2023-03-23T20:49:35.388Z,9.93
2023-03-23T20:52:06.882Z,9.90
2023-03-23T20:54:35.896Z,9.88
2023-03-23T20:57:04.453Z,9.87
2023-03-23T20:59:32.602Z,9.86
2023-03-23T21:02:00.895Z,9.85
2023-03-23T21:04:30.288Z,9.84
2023-03-23T21:06:58.443Z,9.82
2023-03-23T21:09:26.835Z,9.81
2023-03-23T21:11:55.450Z,9.73
2023-03-23T21:14:23.636Z,9.79
2023-03-23T21:16:52.798Z,9.78
2023-03-23T21:19:21.944Z,9.70
2023-03-23T21:21:56.018Z,9.74
2023-03-23T21:24:28.289Z,9.73
2023-03-23T21:27:00.338Z,9.71
2023-03-23T21:29:28.666Z,9.68
2023-03-23T21:34:28.746Z,9.66
2023-03-23T21:36:56.924Z,9.57
2023-03-23T21:39:26.351Z,9.63
2023-03-23T21:41:54.831Z,9.60
2023-03-23T21:44:23.148Z,9.58
2023-03-23T21:46:52.438Z,9.54
2023-03-23T21:49:20.736Z,9.53
2023-03-23T21:51:49.751Z,9.51
2023-03-23T21:54:17.907Z,9.48
2023-03-23T21:56:46.128Z,9.44
2023-03-23T21:59:14.438Z,9.41
2023-03-23T22:01:42.605Z,9.38
2023-03-23T22:04:10.716Z,9.34
2023-03-23T22:06:39.001Z,9.31
2023-03-23T22:09:07.371Z,9.28
2023-03-23T22:11:37.290Z,9.24
2023-03-23T22:14:06.175Z,9.19
2023-03-23T22:16:34.787Z,9.16
2023-03-23T22:19:03.471Z,9.13
2023-03-23T22:21:32.011Z,9.09
2023-03-23T22:24:01.737Z,9.07
2023-03-23T22:26:30.557Z,9.04
2023-03-23T22:29:00.995Z,9.00
2023-03-23T22:31:34.017Z,8.97
2023-03-23T22:34:02.947Z,8.93
2023-03-23T22:36:33.383Z,8.91
2023-03-23T22:39:01.952Z,8.88
2023-03-23T22:41:34.203Z,8.86
2023-03-23T22:44:02.941Z,8.83
2023-03-23T22:46:31.089Z,8.81
2023-03-23T22:48:59.153Z,8.78
2023-03-23T22:51:27.754Z,8.73
2023-03-23T22:53:57.082Z,8.71
2023-03-23T22:56:25.496Z,8.67
2023-03-23T22:58:54.837Z,8.56
2023-03-23T23:01:23.707Z,8.61
2023-03-23T23:03:52.247Z,8.60
2023-03-23T23:06:21.318Z,8.58
2023-03-23T23:08:49.649Z,8.56
2023-03-23T23:11:20.722Z,8.54
2023-03-23T23:13:49.401Z,8.53
2023-03-23T23:16:18.984Z,8.51
2023-03-23T23:18:48.472Z,8.50
2023-03-23T23:21:18.989Z,8.49
2023-03-23T23:23:47.818Z,8.45
2023-03-23T23:26:16.820Z,8.43
2023-03-23T23:28:46.805Z,8.41
2023-03-23T23:31:31.485Z,8.39
2023-03-23T23:34:01.657Z,8.35
2023-03-23T23:36:32.489Z,8.34
2023-03-23T23:39:01.817Z,8.32
2023-03-23T23:41:30.864Z,8.29
2023-03-23T23:44:00.410Z,8.27
2023-03-23T23:46:32.921Z,8.25
2023-03-23T23:49:01.310Z,8.23
2023-03-23T23:51:30.122Z,8.22
2023-03-23T23:54:01.835Z,8.21
2023-03-23T23:56:39.147Z,8.20
2023-03-23T23:59:07.453Z,8.17
